createdAt,value
2022-11-12T01:38:08.144Z,74.85
2022-11-12T01:40:54.573Z,74.10
2022-11-12T01:43:41.439Z,75.09
2022-11-12T01:46:29.897Z,75.46
2022-11-12T01:49:22.934Z,75.36
2022-11-12T01:52:17.366Z,75.14
2022-11-12T01:55:10.970Z,75.47
2022-11-12T01:58:09.418Z,75.29
2022-11-12T02:00:56.504Z,75.03
2022-11-12T02:03:42.977Z,74.91
2022-11-12T02:06:30.366Z,75.24
2022-11-12T02:09:17.369Z,75.61
2022-11-12T02:12:05.637Z,76.71
2022-11-12T02:14:51.250Z,76.63
2022-11-12T02:17:37.520Z,76.28
2022-11-12T02:20:24.172Z,75.79
2022-11-12T02:23:11.988Z,75.46
2022-11-12T02:25:58.528Z,75.65
2022-11-12T02:28:45.184Z,75.53
2022-11-12T02:31:31.867Z,75.05
2022-11-12T02:34:18.461Z,75.64
2022-11-12T02:37:04.926Z,75.59
2022-11-12T02:39:52.987Z,75.69
2022-11-12T02:42:39.543Z,75.82
2022-11-12T02:45:26.685Z,75.78
2022-11-12T02:48:18.921Z,75.29
2022-11-12T02:51:06.380Z,76.04
2022-11-12T02:53:52.855Z,75.71
2022-11-12T02:56:40.825Z,75.95
2022-11-12T02:59:27.323Z,75.77
2022-11-12T03:02:13.754Z,76.47
2022-11-12T03:05:00.345Z,76.78
2022-11-12T03:07:46.916Z,77.24
2022-11-12T03:10:33.703Z,77.07
2022-11-12T03:13:22.207Z,78.26
2022-11-12T03:16:09.584Z,77.72
2022-11-12T03:18:56.136Z,77.15
2022-11-12T03:21:42.778Z,76.96
2022-11-12T03:24:29.407Z,77.76
2022-11-12T03:27:16.381Z,77.39
2022-11-12T03:30:04.763Z,77.94
2022-11-12T03:32:51.518Z,78.16
2022-11-12T03:35:39.090Z,78.08
2022-11-12T03:38:25.672Z,78.20
2022-11-12T03:41:12.408Z,77.21
2022-11-12T03:43:58.993Z,77.82
2022-11-12T03:46:46.827Z,77.06
2022-11-12T03:49:33.421Z,78.28
2022-11-12T03:52:20.088Z,77.46
2022-11-12T03:55:07.348Z,77.73
2022-11-12T03:57:55.183Z,78.06
2022-11-12T04:00:41.922Z,77.63
2022-11-12T04:03:30.063Z,78.80
2022-11-12T04:06:46.092Z,79.02
2022-11-12T04:09:32.460Z,78.94
2022-11-12T04:12:36.945Z,78.39
2022-11-12T04:15:23.476Z,79.03
2022-11-12T04:18:27.895Z,77.95
2022-11-12T04:21:34.518Z,77.99
2022-11-12T04:24:43.925Z,79.04
2022-11-12T04:27:32.554Z,79.67
2022-11-12T04:30:19.073Z,79.44
2022-11-12T04:33:05.799Z,79.01
2022-11-12T04:35:52.432Z,78.96
2022-11-12T04:38:40.545Z,78.76
2022-11-12T04:41:44.723Z,78.22
2022-11-12T04:44:49.097Z,78.46
2022-11-12T04:47:37.688Z,78.69
2022-11-12T04:50:23.893Z,78.16
2022-11-12T04:53:10.941Z,78.30
2022-11-12T04:55:59.940Z,78.53
2022-11-12T04:58:46.506Z,77.66
2022-11-12T05:01:33.480Z,78.68
2022-11-12T05:04:20.132Z,79.66
2022-11-12T05:07:06.831Z,78.13
2022-11-12T05:09:53.387Z,78.21
2022-11-12T05:12:41.708Z,78.16
2022-11-12T05:15:28.302Z,78.04
2022-11-12T05:18:14.894Z,79.27
2022-11-12T05:21:21.848Z,79.12
2022-11-12T05:24:17.839Z,78.96
2022-11-12T05:27:17.560Z,78.86
2022-11-12T05:30:06.453Z,78.54
2022-11-12T05:32:53.057Z,79.68
2022-11-12T05:35:39.888Z,80.40
2022-11-12T05:38:26.613Z,80.32
2022-11-12T05:41:18.770Z,79.92
2022-11-12T05:44:07.166Z,78.79
2022-11-12T05:46:54.853Z,79.60
2022-11-12T05:49:41.502Z,79.83
2022-11-12T05:52:28.133Z,79.30
2022-11-12T05:55:14.692Z,80.02
2022-11-12T05:58:05.874Z,79.54
2022-11-12T06:00:52.167Z,79.64
2022-11-12T06:03:40.053Z,80.51
2022-11-12T06:06:26.759Z,80.15
2022-11-12T06:09:13.602Z,80.10
2022-11-12T06:12:00.132Z,80.67
2022-11-12T06:14:46.491Z,79.24
2022-11-12T06:17:32.952Z,79.74
2022-11-12T06:20:20.949Z,78.69
2022-11-12T06:23:07.541Z,79.51
2022-11-12T06:25:54.293Z,79.78
2022-11-12T06:28:40.931Z,79.66
2022-11-12T06:31:27.587Z,79.47
2022-11-12T06:34:14.802Z,79.58
2022-11-12T06:37:02.662Z,79.62
2022-11-12T06:39:49.672Z,79.17
2022-11-12T06:42:36.758Z,79.35
2022-11-12T06:45:23.341Z,79.10
2022-11-12T06:48:09.823Z,79.30
2022-11-12T06:50:56.964Z,78.66
2022-11-12T06:53:45.156Z,78.56
2022-11-12T06:56:31.764Z,79.28
2022-11-12T06:59:18.396Z,79.36
2022-11-12T07:02:05.641Z,78.35
2022-11-12T07:04:52.020Z,77.60
2022-11-12T07:07:38.462Z,78.34
2022-11-12T07:10:26.543Z,77.60
2022-11-12T07:13:13.384Z,77.78
2022-11-12T07:15:59.821Z,77.09
2022-11-12T07:18:47.836Z,77.12
2022-11-12T07:21:34.108Z,77.01
2022-11-12T07:24:20.708Z,76.81
2022-11-12T07:27:08.900Z,76.25
2022-11-12T07:29:55.028Z,76.52
2022-11-12T07:32:45.952Z,75.41
2022-11-12T07:35:34.676Z,75.26
2022-11-12T07:38:21.113Z,74.41
2022-11-12T07:41:09.995Z,73.81
2022-11-12T07:43:57.642Z,73.38
2022-11-12T07:46:44.289Z,72.61
2022-11-12T07:49:31.032Z,71.77
2022-11-12T07:52:17.673Z,71.79
2022-11-12T07:55:04.529Z,70.83
2022-11-12T07:57:50.886Z,68.59
2022-11-12T08:00:38.763Z,65.03
2022-11-12T08:03:25.882Z,62.02
2022-11-12T08:06:12.622Z,58.70
2022-11-12T08:09:01.538Z,59.20
2022-11-12T08:11:47.790Z,60.39
2022-11-12T08:14:34.410Z,57.42
2022-11-12T08:17:22.495Z,53.83
2022-11-12T08:20:09.920Z,56.39
2022-11-12T08:23:01.006Z,58.20
2022-11-12T08:25:47.633Z,58.41
2022-11-12T08:28:35.982Z,58.26
2022-11-12T08:31:23.455Z,59.37
2022-11-12T08:34:17.371Z,59.48
2022-11-12T08:37:06.387Z,59.36
2022-11-12T08:39:52.866Z,58.36
2022-11-12T08:42:39.885Z,57.64
2022-11-12T08:45:26.391Z,57.72
2022-11-12T08:48:15.051Z,57.59
2022-11-12T08:51:04.585Z,57.29
2022-11-12T08:53:50.898Z,55.95
2022-11-12T08:56:37.550Z,56.41
2022-11-12T08:59:24.300Z,55.51
2022-11-12T09:02:13.844Z,53.52
2022-11-12T09:05:00.366Z,49.66
2022-11-12T09:07:50.478Z,48.63
2022-11-12T09:10:38.492Z,47.36
2022-11-12T09:13:25.187Z,44.69
2022-11-12T09:16:12.019Z,41.58
2022-11-12T09:18:58.617Z,41.48
2022-11-12T09:21:45.389Z,41.71
2022-11-12T09:24:33.847Z,42.98
2022-11-12T09:27:20.292Z,44.46
2022-11-12T09:30:08.001Z,45.95
2022-11-12T09:32:59.090Z,46.38
2022-11-12T09:35:46.529Z,47.48
2022-11-12T09:38:32.974Z,48.24
2022-11-12T09:41:26.819Z,48.51
2022-11-12T09:44:16.965Z,47.86
2022-11-12T09:47:09.009Z,47.68
2022-11-12T09:50:02.563Z,47.32
2022-11-12T09:52:53.014Z,45.60
2022-11-12T09:55:43.036Z,42.42
2022-11-12T09:58:31.122Z,34.76
2022-11-12T10:01:22.309Z,30.64
2022-11-12T10:04:18.411Z,33.54
2022-11-12T10:07:14.770Z,38.64
2022-11-12T10:10:06.883Z,39.54
2022-11-12T10:13:14.156Z,41.91
2022-11-12T10:16:38.706Z,43.60
2022-11-12T10:19:47.431Z,44.24
2022-11-12T10:22:47.225Z,44.55
2022-11-12T10:25:34.547Z,44.53
2022-11-12T10:28:31.851Z,43.91
2022-11-12T10:31:22.768Z,43.42
2022-11-12T10:34:20.488Z,42.29
2022-11-12T10:37:11.960Z,41.46
2022-11-12T10:39:58.658Z,42.28
2022-11-12T10:42:58.174Z,42.93
2022-11-12T10:45:44.760Z,43.08
2022-11-12T10:48:34.302Z,43.11
2022-11-12T10:51:26.938Z,42.54
2022-11-12T10:54:22.883Z,41.49
2022-11-12T10:57:21.831Z,41.19
2022-11-12T11:00:16.685Z,41.70
2022-11-12T11:03:07.329Z,40.22
2022-11-12T11:05:59.219Z,39.85
2022-11-12T11:08:48.986Z,40.15
2022-11-12T11:11:35.943Z,41.37
2022-11-12T11:14:28.399Z,41.51
2022-11-12T11:17:18.748Z,42.38
2022-11-12T11:20:25.633Z,43.10
2022-11-12T11:23:21.382Z,43.86
2022-11-12T11:26:19.516Z,45.90
2022-11-12T11:29:23.600Z,45.71
2022-11-12T11:32:23.492Z,44.76
2022-11-12T11:35:21.952Z,45.18
2022-11-12T11:38:30.599Z,45.18
2022-11-12T11:41:36.250Z,46.27
2022-11-12T11:44:31.472Z,45.74
2022-11-12T11:47:50.512Z,44.92
2022-11-12T11:50:43.278Z,42.80
2022-11-12T11:53:44.283Z,42.90
2022-11-12T11:56:34.887Z,42.70
2022-11-12T11:59:33.849Z,42.58
2022-11-12T12:02:44.060Z,43.45
2022-11-12T12:05:41.237Z,45.20
2022-11-12T12:08:45.852Z,44.82
2022-11-12T12:11:39.958Z,45.67
2022-11-12T12:14:42.796Z,45.42
2022-11-12T12:17:44.786Z,45.75
2022-11-12T12:20:41.325Z,46.88
2022-11-12T12:23:35.430Z,46.08
2022-11-12T12:26:26.771Z,46.05
2022-11-12T12:29:18.252Z,46.36
2022-11-12T12:32:13.348Z,47.05
2022-11-12T12:35:04.673Z,46.65
2022-11-12T12:38:02.863Z,46.62
2022-11-12T12:40:58.772Z,46.33
2022-11-12T12:43:50.784Z,47.62
2022-11-12T12:46:42.153Z,46.94
2022-11-12T12:49:34.861Z,47.37
2022-11-12T12:52:21.421Z,48.07
2022-11-12T12:55:41.724Z,47.71
2022-11-12T12:58:30.472Z,48.00
2022-11-12T13:01:31.320Z,48.42
2022-11-12T13:04:18.019Z,48.94
2022-11-12T13:07:09.882Z,48.83
2022-11-12T13:10:30.528Z,49.74
2022-11-12T13:13:32.623Z,50.35
2022-11-12T13:16:49.488Z,51.24
2022-11-12T13:19:38.861Z,52.32
2022-11-12T13:22:51.969Z,52.58
2022-11-12T13:25:38.992Z,52.79
2022-11-12T13:28:26.224Z,53.12
2022-11-12T13:31:28.355Z,54.52
2022-11-12T13:34:22.489Z,54.52
2022-11-12T13:37:20.887Z,55.46
2022-11-12T13:40:12.997Z,55.95
2022-11-12T13:43:06.016Z,56.47
2022-11-12T13:45:55.959Z,57.31
2022-11-12T13:48:46.117Z,57.49
2022-11-12T13:51:40.315Z,56.79
2022-11-12T13:54:38.811Z,57.17
2022-11-12T13:57:31.375Z,58.12
2022-11-12T14:00:25.487Z,58.28
2022-11-12T14:03:18.162Z,58.86
2022-11-12T14:06:08.799Z,58.94
2022-11-12T14:09:17.849Z,58.28
2022-11-12T14:12:32.445Z,59.57
2022-11-12T14:15:31.657Z,58.94
2022-11-12T14:18:28.665Z,59.31
2022-11-12T14:21:18.281Z,59.34
2022-11-12T14:24:06.166Z,59.24
2022-11-12T14:26:52.852Z,59.47
2022-11-12T14:29:43.689Z,59.92
2022-11-12T14:32:36.967Z,59.58
2022-11-12T14:35:35.626Z,60.47
2022-11-12T14:38:28.160Z,60.59
2022-11-12T14:41:21.580Z,60.83
2022-11-12T14:44:13.114Z,61.07
2022-11-12T14:47:02.501Z,60.84
2022-11-12T14:49:50.872Z,61.33
2022-11-12T14:52:44.054Z,61.13
2022-11-12T14:55:33.449Z,61.23
2022-11-12T14:58:22.102Z,61.40
2022-11-12T15:02:20.662Z,61.98
2022-11-12T15:04:39.981Z,62.33
2022-11-12T15:07:29.125Z,62.99
2022-11-12T15:10:33.650Z,63.31
2022-11-12T15:13:22.748Z,63.70
2022-11-12T15:16:11.371Z,63.98
2022-11-12T15:19:16.862Z,65.09
2022-11-12T15:22:05.510Z,66.11
2022-11-12T15:24:52.021Z,65.94
2022-11-12T15:27:40.726Z,66.12
2022-11-12T15:30:29.132Z,66.16
2022-11-12T15:33:19.520Z,66.27
2022-11-12T15:36:06.228Z,66.76
2022-11-12T15:38:55.249Z,67.39
2022-11-12T15:41:41.683Z,67.64
2022-11-12T15:44:34.729Z,68.45
2022-11-12T15:47:22.778Z,67.99
2022-11-12T15:50:16.919Z,67.90
2022-11-12T15:53:03.666Z,68.14
2022-11-12T15:55:52.967Z,68.16
2022-11-12T15:58:40.465Z,69.08
2022-11-12T16:01:27.168Z,69.20
2022-11-12T16:04:14.463Z,68.66
2022-11-12T16:07:00.931Z,68.85
2022-11-12T16:09:47.549Z,68.49
2022-11-12T16:12:35.950Z,68.63
2022-11-12T16:15:25.537Z,68.93
2022-11-12T16:18:12.737Z,69.92
2022-11-12T16:20:59.314Z,70.68
2022-11-12T16:23:46.251Z,70.63
2022-11-12T16:26:33.758Z,70.94
2022-11-12T16:29:21.653Z,71.05
2022-11-12T16:32:12.946Z,71.28
2022-11-12T16:35:01.276Z,71.43
2022-11-12T16:37:48.574Z,71.29
2022-11-12T16:40:35.299Z,71.62
2022-11-12T16:43:23.629Z,72.19
2022-11-12T16:46:26.020Z,73.40
2022-11-12T16:49:13.884Z,73.13
2022-11-12T16:52:00.519Z,73.80
2022-11-12T16:54:47.297Z,74.23
2022-11-12T16:57:34.385Z,74.28
2022-11-12T17:00:21.381Z,73.76
2022-11-12T17:03:12.711Z,73.63
2022-11-12T17:05:59.282Z,74.12
2022-11-12T17:08:47.963Z,73.93
2022-11-12T17:11:35.529Z,73.46
2022-11-12T17:14:27.987Z,73.45
2022-11-12T17:17:15.060Z,73.41
2022-11-12T17:20:03.153Z,73.31
2022-11-12T17:22:49.507Z,72.99
2022-11-12T17:25:36.178Z,72.93
2022-11-12T17:28:22.914Z,73.17
2022-11-12T17:31:12.358Z,72.62
2022-11-12T17:33:58.817Z,73.02
2022-11-12T17:36:46.657Z,73.78
2022-11-12T17:39:33.387Z,73.91
2022-11-12T17:42:20.009Z,74.06
2022-11-12T17:45:07.876Z,73.50
2022-11-12T17:47:54.576Z,73.97
2022-11-12T17:50:41.167Z,74.69
2022-11-12T17:53:30.760Z,74.90
2022-11-12T17:56:19.808Z,74.93
2022-11-12T17:59:06.524Z,74.62
2022-11-12T18:01:53.181Z,75.29
2022-11-12T18:04:39.914Z,75.50
2022-11-12T18:07:26.624Z,75.69
2022-11-12T18:10:19.388Z,75.08
2022-11-12T18:13:06.440Z,75.04
2022-11-12T18:15:53.002Z,75.87
2022-11-12T18:18:39.635Z,76.10
2022-11-12T18:21:27.957Z,75.79
2022-11-12T18:24:16.595Z,75.80
2022-11-12T18:27:04.692Z,77.07
2022-11-12T18:29:51.059Z,77.30
2022-11-12T18:32:39.098Z,77.32
2022-11-12T18:35:29.604Z,76.84
2022-11-12T18:38:16.329Z,76.35
2022-11-12T18:41:05.362Z,77.58
2022-11-12T18:43:53.741Z,77.89
2022-11-12T18:46:40.044Z,77.49
2022-11-12T18:49:26.483Z,76.82
2022-11-12T18:52:13.064Z,76.92
2022-11-12T18:54:59.684Z,77.56
2022-11-12T18:57:46.205Z,78.38
2022-11-12T19:00:34.532Z,78.22
2022-11-12T19:03:21.543Z,77.46
2022-11-12T19:06:08.872Z,77.73
2022-11-12T19:09:00.313Z,77.57
2022-11-12T19:11:46.987Z,77.51
2022-11-12T19:14:33.960Z,76.99
2022-11-12T19:17:21.960Z,77.56
2022-11-12T19:20:10.013Z,78.33
2022-11-12T19:22:57.141Z,78.04
2022-11-12T19:25:43.832Z,77.43
2022-11-12T19:28:32.037Z,77.92
2022-11-12T19:31:20.309Z,78.06
2022-11-12T19:34:07.937Z,77.70
2022-11-12T19:37:11.937Z,77.84
2022-11-12T19:40:00.703Z,77.65
2022-11-12T19:42:47.987Z,77.73
2022-11-12T19:45:34.613Z,77.90
2022-11-12T19:48:21.165Z,78.68
2022-11-12T19:51:11.080Z,78.21
2022-11-12T19:53:57.790Z,77.83
2022-11-12T19:56:44.119Z,78.34
2022-11-12T19:59:30.352Z,79.07
2022-11-12T20:02:17.312Z,78.40
2022-11-12T20:05:04.629Z,78.60
2022-11-12T20:07:52.656Z,78.92
2022-11-12T20:10:39.356Z,78.44
2022-11-12T20:13:26.001Z,79.59
2022-11-12T20:16:14.289Z,78.92
2022-11-12T20:19:01.488Z,79.28
2022-11-12T20:21:48.119Z,78.88
2022-11-12T20:24:36.242Z,79.36
2022-11-12T20:27:22.679Z,78.88
2022-11-12T20:30:10.456Z,79.40
2022-11-12T20:32:56.938Z,78.43
2022-11-12T20:35:43.683Z,78.69
2022-11-12T20:38:30.304Z,79.39
2022-11-12T20:41:21.075Z,79.05
2022-11-12T20:44:07.715Z,78.73
2022-11-12T20:46:53.978Z,78.38
2022-11-12T20:49:40.580Z,79.00
2022-11-12T20:52:27.316Z,79.52
2022-11-12T20:55:13.893Z,79.61
2022-11-12T20:58:02.404Z,79.33
2022-11-12T21:00:51.157Z,80.28
2022-11-12T21:03:39.530Z,80.33
2022-11-12T21:06:28.430Z,79.69
2022-11-12T21:09:15.211Z,80.55
2022-11-12T21:12:01.921Z,79.84
2022-11-12T21:14:50.787Z,79.76
2022-11-12T21:17:37.557Z,79.80
2022-11-12T21:20:24.269Z,79.15
2022-11-12T21:23:10.961Z,79.44
2022-11-12T21:26:04.196Z,80.14
2022-11-12T21:28:52.853Z,79.75
2022-11-12T21:31:40.877Z,79.34
2022-11-12T21:34:27.836Z,80.52
2022-11-12T21:37:14.411Z,80.49
2022-11-12T21:40:00.921Z,80.61
2022-11-12T21:42:47.795Z,80.24
2022-11-12T21:45:34.440Z,80.33
2022-11-12T21:48:22.553Z,80.36
2022-11-12T21:51:11.013Z,80.58
2022-11-12T21:53:59.431Z,79.99
2022-11-12T21:56:45.558Z,79.49
2022-11-12T21:59:32.305Z,79.58
2022-11-12T22:02:19.068Z,80.16
2022-11-12T22:05:07.335Z,79.85
2022-11-12T22:07:54.468Z,80.19
2022-11-12T22:10:40.931Z,80.24
2022-11-12T22:13:27.839Z,80.06
2022-11-12T22:16:16.673Z,81.10
2022-11-12T22:19:03.327Z,80.59
2022-11-12T22:21:51.548Z,80.07
2022-11-12T22:24:37.866Z,80.91
2022-11-12T22:27:25.645Z,80.29
2022-11-12T22:30:12.852Z,80.47
2022-11-12T22:32:59.335Z,80.27
2022-11-12T22:35:45.987Z,80.20
2022-11-12T22:38:37.785Z,79.81
2022-11-12T22:41:26.524Z,80.00
2022-11-12T22:44:13.235Z,79.98
2022-11-12T22:46:59.869Z,80.08
2022-11-12T22:49:46.600Z,80.90
2022-11-12T22:52:33.400Z,80.41
2022-11-12T22:55:21.287Z,79.72
2022-11-12T22:58:07.940Z,80.33
2022-11-12T23:00:54.581Z,80.14
2022-11-12T23:03:41.232Z,79.56
2022-11-12T23:06:29.348Z,79.09
2022-11-12T23:09:17.614Z,79.21
2022-11-12T23:12:05.572Z,78.96
2022-11-12T23:14:51.932Z,79.35
2022-11-12T23:17:38.633Z,79.49
2022-11-12T23:20:25.162Z,79.83
2022-11-12T23:23:11.625Z,78.98
2022-11-12T23:26:03.049Z,79.14
2022-11-12T23:28:51.759Z,78.67
2022-11-12T23:31:38.786Z,79.15
2022-11-12T23:34:25.525Z,79.27
2022-11-12T23:37:12.018Z,78.68
2022-11-12T23:39:58.568Z,78.79
2022-11-12T23:42:45.025Z,78.45
2022-11-12T23:45:37.151Z,78.88
2022-11-12T23:48:24.089Z,78.66
2022-11-12T23:51:13.061Z,78.75
2022-11-12T23:53:59.413Z,78.73
2022-11-12T23:56:45.996Z,78.19
2022-11-12T23:59:32.648Z,78.20
